createdAt,value
2018-09-29T00:00:36.903Z,98928.57
2018-09-29T00:03:04.820Z,98925.71
2018-09-29T00:05:32.520Z,98915.78
2018-09-29T00:08:00.535Z,98911.63
2018-09-29T00:10:28.308Z,98927.48
2018-09-29T00:13:06.736Z,98929.92
2018-09-29T00:15:34.384Z,98925.97
2018-09-29T00:18:02.095Z,98918.95
2018-09-29T00:20:29.942Z,98914.53
2018-09-29T00:22:57.613Z,98913.05
2018-09-29T00:25:25.384Z,98913.46
2018-09-29T00:27:53.192Z,98907.80
2018-09-29T00:30:20.989Z,98910.55
2018-09-29T00:32:48.759Z,98913.36
2018-09-29T00:35:16.491Z,98913.55
2018-09-29T00:37:44.248Z,98917.13
2018-09-29T00:40:12.046Z,98921.89
2018-09-29T00:42:39.731Z,98920.73
2018-09-29T00:45:07.457Z,98920.37
2018-09-29T00:47:35.289Z,98916.68
2018-09-29T00:50:03.147Z,98926.92
2018-09-29T00:52:31.093Z,98925.17
2018-09-29T00:54:58.832Z,98934.63
2018-09-29T00:57:26.604Z,98942.47
2018-09-29T00:59:54.340Z,98930.91
2018-09-29T01:02:22.253Z,98942.17
2018-09-29T01:04:50.022Z,98931.76
2018-09-29T01:07:17.728Z,98933.55
2018-09-29T01:09:45.536Z,98928.22
2018-09-29T01:12:13.444Z,98924.50
2018-09-29T01:14:41.146Z,98934.44
2018-09-29T01:17:09.005Z,98936.89
2018-09-29T01:19:36.702Z,98939.30
2018-09-29T01:22:04.472Z,98947.00
2018-09-29T01:24:32.262Z,98949.75
2018-09-29T01:27:00.047Z,98951.69
2018-09-29T01:29:27.891Z,98940.02
2018-09-29T01:31:55.661Z,98931.34
2018-09-29T01:34:23.449Z,98936.25
2018-09-29T01:36:51.152Z,98938.82
2018-09-29T01:39:18.868Z,98944.07
2018-09-29T01:41:46.709Z,98945.89
2018-09-29T01:44:14.452Z,98948.80
2018-09-29T01:46:42.131Z,98949.16
2018-09-29T01:49:09.843Z,98944.67
2018-09-29T01:51:37.601Z,98949.35
2018-09-29T01:54:05.339Z,98955.53
2018-09-29T01:56:33.093Z,98957.98
2018-09-29T01:59:00.852Z,98956.95
2018-09-29T02:01:28.625Z,98956.54
2018-09-29T02:03:56.313Z,98953.26
2018-09-29T02:06:24.129Z,98955.27
2018-09-29T02:08:51.892Z,98954.63
2018-09-29T02:11:19.641Z,98956.00
2018-09-29T02:13:47.385Z,98955.82
2018-09-29T02:16:15.153Z,98954.97
2018-09-29T02:18:42.922Z,98955.34
2018-09-29T02:21:10.740Z,98958.09
2018-09-29T02:23:38.465Z,98959.47
2018-09-29T02:26:06.405Z,98955.15
2018-09-29T02:28:34.191Z,98948.63
2018-09-29T02:31:02.061Z,98944.31
2018-09-29T02:33:29.823Z,98938.80
2018-09-29T02:35:57.669Z,98940.00
2018-09-29T02:38:25.341Z,98946.52
2018-09-29T02:40:53.062Z,98938.33
2018-09-29T02:43:20.834Z,98937.25
2018-09-29T02:45:48.689Z,98943.62
2018-09-29T02:48:16.514Z,98942.05
2018-09-29T02:50:44.196Z,98946.05
2018-09-29T02:53:11.904Z,98947.42
2018-09-29T02:55:39.662Z,98954.45
2018-09-29T02:58:07.390Z,98956.16
2018-09-29T03:00:35.077Z,98957.84
2018-09-29T03:03:02.846Z,98966.17
2018-09-29T03:05:30.628Z,98969.34
2018-09-29T03:07:58.386Z,98973.88
2018-09-29T03:10:26.185Z,98971.20
2018-09-29T03:12:53.908Z,98971.86
2018-09-29T03:15:21.704Z,98976.03
2018-09-29T03:17:49.526Z,98976.29
2018-09-29T03:20:17.295Z,98975.51
2018-09-29T03:22:45.088Z,98973.66
2018-09-29T03:25:12.922Z,98974.43
2018-09-29T03:27:40.686Z,98971.02
2018-09-29T03:30:08.421Z,98971.20
2018-09-29T03:32:36.144Z,98965.28
2018-09-29T03:35:04.017Z,98967.00
2018-09-29T03:37:31.803Z,98971.91
2018-09-29T03:39:59.545Z,98973.06
2018-09-29T03:42:27.298Z,98976.19
2018-09-29T03:44:55.117Z,98978.38
2018-09-29T03:47:23.045Z,98975.89
2018-09-29T03:49:50.817Z,98982.81
2018-09-29T03:52:18.486Z,98982.69
2018-09-29T03:54:46.167Z,98983.70
2018-09-29T03:57:14.029Z,98985.80
2018-09-29T03:59:41.837Z,98991.47
2018-09-29T04:02:09.605Z,98987.19
2018-09-29T04:04:37.365Z,98993.28
2018-09-29T04:07:05.107Z,98993.88
2018-09-29T04:09:32.903Z,99000.39
2018-09-29T04:12:00.786Z,99006.37
2018-09-29T04:14:28.645Z,99004.02
2018-09-29T04:16:56.377Z,99004.80
2018-09-29T04:19:24.235Z,99005.05
2018-09-29T04:21:52.085Z,99015.44
2018-09-29T04:24:19.896Z,99011.69
2018-09-29T04:26:47.705Z,99019.13
2018-09-29T04:29:16.524Z,99017.80
2018-09-29T04:31:44.315Z,99012.67
2018-09-29T04:34:12.726Z,99008.17
2018-09-29T04:36:40.769Z,99011.89
2018-09-29T04:39:10.675Z,99014.87
2018-09-29T04:41:38.681Z,99013.56
2018-09-29T04:44:06.617Z,99017.75
2018-09-29T04:46:34.342Z,99027.73
2018-09-29T04:49:02.075Z,99028.20
2018-09-29T04:51:29.894Z,99029.58
2018-09-29T04:53:57.628Z,99034.55
2018-09-29T04:56:25.379Z,99036.14
2018-09-29T04:58:53.233Z,99045.84
2018-09-29T05:01:20.929Z,99040.37
2018-09-29T05:03:48.781Z,99040.43
2018-09-29T05:06:16.768Z,99036.33
2018-09-29T05:08:44.589Z,99042.87
2018-09-29T05:11:12.671Z,99043.73
2018-09-29T05:13:40.524Z,99045.01
2018-09-29T05:16:08.385Z,99040.53
2018-09-29T05:18:36.220Z,99047.95
2018-09-29T05:21:05.480Z,99048.14
2018-09-29T05:23:33.275Z,99052.18
2018-09-29T05:26:00.962Z,99054.09
2018-09-29T05:28:28.902Z,99058.19
2018-09-29T05:30:56.619Z,99059.88
2018-09-29T05:33:24.477Z,99069.05
2018-09-29T05:35:52.241Z,99074.02
2018-09-29T05:38:20.119Z,99078.03
2018-09-29T05:40:47.995Z,99070.68
2018-09-29T05:43:15.750Z,99074.34
2018-09-29T05:45:43.754Z,99087.64
2018-09-29T05:48:12.580Z,99080.84
2018-09-29T05:50:40.755Z,99081.34
2018-09-29T05:53:08.445Z,99082.17
2018-09-29T05:55:48.530Z,99085.64
2018-09-29T05:58:16.525Z,99083.62
2018-09-29T06:00:44.531Z,99079.91
2018-09-29T06:03:13.569Z,99081.16
2018-09-29T06:07:49.639Z,99071.65
2018-09-29T06:10:18.538Z,99078.84
2018-09-29T06:12:47.360Z,99079.25
2018-09-29T06:15:16.366Z,99067.40
2018-09-29T06:17:45.313Z,99074.70
2018-09-29T06:20:14.013Z,99080.69
2018-09-29T06:22:42.868Z,99077.16
2018-09-29T06:25:11.712Z,99086.09
2018-09-29T06:27:40.622Z,99093.62
2018-09-29T06:30:09.527Z,99091.53
2018-09-29T06:32:38.378Z,99091.91
2018-09-29T06:35:07.365Z,99085.84
2018-09-29T06:37:36.235Z,99087.52
2018-09-29T06:40:06.041Z,99100.17
2018-09-29T06:42:34.795Z,99098.38
2018-09-29T06:45:03.897Z,99093.49
2018-09-29T06:47:32.708Z,99097.11
2018-09-29T06:50:01.608Z,99099.20
2018-09-29T06:52:30.593Z,99087.45
2018-09-29T06:54:59.439Z,99086.53
2018-09-29T06:57:28.280Z,99083.14
2018-09-29T06:59:57.008Z,99085.06
2018-09-29T07:02:25.993Z,99086.71
2018-09-29T07:04:54.927Z,99090.37
2018-09-29T07:07:34.766Z,99088.17
2018-09-29T07:10:03.574Z,99091.97
2018-09-29T07:12:32.585Z,99099.75
2018-09-29T07:15:01.522Z,99101.92
2018-09-29T07:17:30.371Z,99100.88
2018-09-29T07:19:59.297Z,99109.55
2018-09-29T07:22:28.208Z,99105.45
2018-09-29T07:24:57.374Z,99107.51
2018-09-29T07:27:26.382Z,99119.45
2018-09-29T07:29:55.369Z,99111.66
2018-09-29T07:32:24.367Z,99124.39
2018-09-29T07:34:53.236Z,99127.72
2018-09-29T07:37:22.097Z,99128.12
2018-09-29T07:39:50.954Z,99132.41
2018-09-29T07:42:19.797Z,99130.83
2018-09-29T07:44:48.634Z,99135.52
2018-09-29T07:47:17.587Z,99127.30
2018-09-29T07:49:46.365Z,99124.87
2018-09-29T07:52:15.372Z,99114.63
2018-09-29T07:54:43.426Z,99112.59
2018-09-29T07:57:12.366Z,99120.20
2018-09-29T07:59:41.303Z,99115.41
2018-09-29T08:02:10.014Z,99113.31
2018-09-29T08:04:38.893Z,99122.24
2018-09-29T08:07:07.805Z,99130.65
2018-09-29T08:09:36.712Z,99128.36
2018-09-29T08:12:05.672Z,99131.18
2018-09-29T08:14:34.625Z,99130.94
2018-09-29T08:19:45.696Z,99126.17
2018-09-29T08:22:14.925Z,99129.02
2018-09-29T08:24:43.844Z,99126.30
2018-09-29T08:27:12.700Z,99131.42
2018-09-29T08:29:41.516Z,99130.56
2018-09-29T08:32:10.396Z,99138.34
2018-09-29T08:34:39.315Z,99135.20
2018-09-29T08:37:08.011Z,99137.92
2018-09-29T08:39:36.932Z,99137.05
2018-09-29T08:42:05.829Z,99140.03
2018-09-29T08:44:34.720Z,99138.42
2018-09-29T08:47:03.605Z,99140.22
2018-09-29T08:49:32.369Z,99136.34
2018-09-29T08:52:01.392Z,99137.48
2018-09-29T08:54:30.860Z,99131.82
2018-09-29T08:56:59.851Z,99129.65
2018-09-29T08:59:28.966Z,99129.95
2018-09-29T09:01:58.063Z,99129.80
2018-09-29T09:04:27.697Z,99132.59
2018-09-29T09:06:56.688Z,99134.30
2018-09-29T09:09:26.757Z,99131.95
2018-09-29T09:11:55.920Z,99123.09
2018-09-29T09:14:24.811Z,99121.48
2018-09-29T09:16:54.019Z,99114.73
2018-09-29T09:19:23.066Z,99119.22
2018-09-29T09:21:52.073Z,99122.91
2018-09-29T09:24:21.060Z,99121.33
2018-09-29T09:26:49.987Z,99124.81
2018-09-29T09:29:19.586Z,99120.72
2018-09-29T09:31:48.505Z,99122.76
2018-09-29T09:34:17.376Z,99115.08
2018-09-29T09:36:45.382Z,99118.83
2018-09-29T09:39:14.073Z,99124.17
2018-09-29T09:41:42.778Z,99127.62
2018-09-29T09:44:11.661Z,99123.14
2018-09-29T09:46:40.634Z,99127.53
2018-09-29T09:49:09.372Z,99127.50
2018-09-29T09:51:37.375Z,99124.34
2018-09-29T09:54:06.034Z,99125.91
2018-09-29T09:56:35.223Z,99111.97
2018-09-29T09:59:03.948Z,99111.91
2018-09-29T10:01:35.305Z,99107.75
2018-09-29T10:04:03.993Z,99107.07
2018-09-29T10:06:32.869Z,99098.00
2018-09-29T10:09:01.748Z,99094.73
2018-09-29T10:11:30.640Z,99094.70
2018-09-29T10:13:59.508Z,99088.29
2018-09-29T10:16:28.377Z,99083.34
2018-09-29T10:18:56.365Z,99082.13
2018-09-29T10:21:25.838Z,99070.63
2018-09-29T10:23:54.760Z,99077.84
2018-09-29T10:26:23.836Z,99069.45
2018-09-29T10:28:54.030Z,99060.47
2018-09-29T10:31:22.994Z,99061.56
2018-09-29T10:33:51.966Z,99070.30
2018-09-29T10:36:20.926Z,99070.24
2018-09-29T10:38:49.852Z,99070.87
2018-09-29T10:41:18.723Z,99072.97
2018-09-29T10:43:47.704Z,99074.42
2018-09-29T10:46:16.601Z,99070.49
2018-09-29T10:48:45.545Z,99074.97
2018-09-29T10:51:14.372Z,99072.98
2018-09-29T10:53:43.369Z,99067.20
2018-09-29T10:56:12.240Z,99065.92
2018-09-29T10:58:41.373Z,99066.50
2018-09-29T11:01:10.045Z,99068.89
2018-09-29T11:03:38.984Z,99063.84
2018-09-29T11:06:07.784Z,99063.03
2018-09-29T11:08:36.885Z,99064.48
2018-09-29T11:11:05.784Z,99063.06
2018-09-29T11:13:35.036Z,99059.89
2018-09-29T11:16:03.951Z,99060.78
2018-09-29T11:18:32.818Z,99055.23
2018-09-29T11:21:01.815Z,99044.81
2018-09-29T11:23:30.731Z,99050.42
2018-09-29T11:25:59.633Z,99042.69
2018-09-29T11:28:28.421Z,99039.80
2018-09-29T11:30:57.021Z,99036.78
2018-09-29T11:33:25.808Z,99029.67
2018-09-29T11:35:54.597Z,99022.20
2018-09-29T11:38:23.384Z,99021.67
2018-09-29T11:40:52.045Z,99016.75
2018-09-29T11:43:20.832Z,99006.55
2018-09-29T11:45:49.705Z,99008.55
2018-09-29T11:48:18.617Z,99004.64
2018-09-29T11:50:47.517Z,98998.34
2018-09-29T11:53:16.384Z,99001.72
2018-09-29T11:55:44.526Z,99000.16
2018-09-29T11:58:13.917Z,98995.64
2018-09-29T12:00:42.701Z,98986.14
2018-09-29T12:03:11.679Z,98987.30
2018-09-29T12:05:40.578Z,98989.14
2018-09-29T12:08:09.384Z,98983.77
2018-09-29T12:10:38.637Z,98974.31
2018-09-29T12:13:08.520Z,98980.67
2018-09-29T12:15:37.377Z,98980.42
2018-09-29T12:18:05.648Z,98983.72
2018-09-29T12:20:34.814Z,98974.59
2018-09-29T12:23:03.692Z,98972.81
2018-09-29T12:25:32.822Z,98972.83
2018-09-29T12:28:01.723Z,98966.26
2018-09-29T12:30:30.644Z,98961.77
2018-09-29T12:32:59.828Z,98963.27
2018-09-29T12:35:28.788Z,98958.64
2018-09-29T12:37:57.645Z,98955.36
2018-09-29T12:40:26.898Z,98951.23
2018-09-29T12:42:56.053Z,98951.27
2018-09-29T12:45:25.216Z,98951.30
2018-09-29T12:47:54.061Z,98945.81
2018-09-29T12:50:23.245Z,98943.92
2018-09-29T12:52:52.009Z,98941.75
2018-09-29T12:55:20.996Z,98937.94
2018-09-29T12:57:49.943Z,98932.20
2018-09-29T13:00:18.764Z,98932.72
2018-09-29T13:02:47.741Z,98923.45
2018-09-29T13:05:16.928Z,98923.65
2018-09-29T13:07:45.703Z,98925.87
2018-09-29T13:10:14.625Z,98912.05
2018-09-29T13:12:43.377Z,98917.19
2018-09-29T13:15:12.048Z,98909.49
2018-09-29T13:17:41.035Z,98907.04
2018-09-29T13:20:09.965Z,98905.09
2018-09-29T13:22:38.796Z,98902.82
2018-09-29T13:25:07.629Z,98902.52
2018-09-29T13:27:36.644Z,98900.83
2018-09-29T13:30:06.380Z,98894.16
2018-09-29T13:32:35.048Z,98888.08
2018-09-29T13:35:03.963Z,98887.95
2018-09-29T13:37:32.784Z,98887.45
2018-09-29T13:40:01.680Z,98881.50
2018-09-29T13:42:30.619Z,98875.20
2018-09-29T13:44:59.621Z,98872.27
2018-09-29T13:47:28.566Z,98865.06
2018-09-29T13:49:57.372Z,98861.47
2018-09-29T13:52:26.232Z,98859.80
2018-09-29T13:54:55.549Z,98862.85
2018-09-29T13:57:24.528Z,98856.13
2018-09-29T13:59:53.388Z,98851.46
2018-09-29T14:02:22.483Z,98851.09
2018-09-29T14:04:51.511Z,98848.95
2018-09-29T14:07:20.663Z,98844.12
2018-09-29T14:09:49.815Z,98840.05
2018-09-29T14:12:19.004Z,98834.55
2018-09-29T14:14:48.015Z,98818.91
2018-09-29T14:17:17.091Z,98828.34
2018-09-29T14:19:45.950Z,98830.97
2018-09-29T14:22:15.600Z,98830.11
2018-09-29T14:24:44.809Z,98816.41
2018-09-29T14:27:13.912Z,98820.98
2018-09-29T14:29:42.706Z,98825.34
2018-09-29T14:32:11.919Z,98811.34
2018-09-29T14:34:40.718Z,98813.51
2018-09-29T14:37:09.721Z,98810.82
2018-09-29T14:39:38.658Z,98808.34
2018-09-29T14:42:07.606Z,98806.19
2018-09-29T14:44:36.383Z,98806.87
2018-09-29T14:47:05.292Z,98803.42
2018-09-29T14:49:34.067Z,98806.57
2018-09-29T14:52:02.924Z,98803.53
2018-09-29T14:54:31.796Z,98799.58
2018-09-29T14:57:00.812Z,98801.30
2018-09-29T14:59:29.801Z,98802.30
2018-09-29T15:01:58.717Z,98795.17
2018-09-29T15:04:27.618Z,98788.30
2018-09-29T15:06:56.529Z,98790.39
2018-09-29T15:09:25.523Z,98790.18
2018-09-29T15:11:54.540Z,98796.14
2018-09-29T15:14:23.614Z,98792.32
2018-09-29T15:16:52.549Z,98783.70
2018-09-29T15:19:21.378Z,98786.25
2018-09-29T15:21:49.471Z,98783.96
2018-09-29T15:24:18.388Z,98779.40
2018-09-29T15:26:47.026Z,98773.44
2018-09-29T15:29:15.997Z,98766.34
2018-09-29T15:31:44.997Z,98760.36
2018-09-29T15:34:14.068Z,98760.61
2018-09-29T15:36:43.009Z,98755.16
2018-09-29T15:40:42.610Z,98751.37
2018-09-29T15:43:11.375Z,98755.36
2018-09-29T15:45:39.368Z,98752.12
2018-09-29T15:48:08.366Z,98751.34
2018-09-29T15:50:36.377Z,98745.90
2018-09-29T15:53:05.327Z,98741.63
2018-09-29T15:55:34.304Z,98732.47
2018-09-29T15:58:03.057Z,98737.55
2018-09-29T16:00:31.905Z,98739.42
2018-09-29T16:03:00.695Z,98742.69
2018-09-29T16:05:29.529Z,98727.50
2018-09-29T16:07:58.371Z,98732.47
2018-09-29T16:10:26.712Z,98725.12
2018-09-29T16:12:55.658Z,98724.58
2018-09-29T16:15:24.628Z,98723.22
2018-09-29T16:17:53.383Z,98716.59
2018-09-29T16:20:22.240Z,98718.16
2018-09-29T16:22:50.998Z,98715.16
2018-09-29T16:25:19.763Z,98715.58
2018-09-29T16:27:48.697Z,98707.75
2018-09-29T16:30:17.661Z,98708.12
2018-09-29T16:32:46.582Z,98710.02
2018-09-29T16:35:15.357Z,98709.23
2018-09-29T16:37:44.056Z,98708.64
2018-09-29T16:40:12.908Z,98710.40
2018-09-29T16:42:41.786Z,98707.69
2018-09-29T16:45:10.736Z,98705.95
2018-09-29T16:47:39.644Z,98707.94
2018-09-29T16:50:08.392Z,98701.53
2018-09-29T16:52:36.610Z,98700.69
2018-09-29T16:55:05.613Z,98712.57
2018-09-29T16:57:34.376Z,98713.56
2018-09-29T17:00:03.382Z,98706.72
2018-09-29T17:02:31.396Z,98707.39
2018-09-29T17:05:00.209Z,98702.55
2018-09-29T17:07:29.055Z,98703.99
2018-09-29T17:09:58.021Z,98698.80
2018-09-29T17:12:26.951Z,98705.86
2018-09-29T17:14:55.883Z,98700.33
2018-09-29T17:17:24.720Z,98700.52
2018-09-29T17:19:53.637Z,98696.41
2018-09-29T17:22:22.376Z,98698.44
2018-09-29T17:24:50.572Z,98703.90
2018-09-29T17:27:19.358Z,98704.56
2018-09-29T17:29:48.273Z,98706.73
2018-09-29T17:32:17.232Z,98708.16
2018-09-29T17:34:46.014Z,98707.53
2018-09-29T17:37:14.848Z,98703.06
2018-09-29T17:39:43.736Z,98710.48
2018-09-29T17:42:12.782Z,98706.48
2018-09-29T17:44:41.666Z,98705.86
2018-09-29T17:47:10.632Z,98709.27
2018-09-29T17:49:39.362Z,98706.95
2018-09-29T17:52:08.322Z,98704.64
2018-09-29T17:54:37.299Z,98704.48
2018-09-29T17:57:07.604Z,98711.56
2018-09-29T17:59:36.505Z,98711.70
2018-09-29T18:02:05.564Z,98718.66
2018-09-29T18:04:34.432Z,98718.05
2018-09-29T18:07:02.385Z,98722.98
2018-09-29T18:09:31.215Z,98720.34
2018-09-29T18:12:00.075Z,98721.28
2018-09-29T18:14:28.900Z,98720.63
2018-09-29T18:16:57.783Z,98729.45
2018-09-29T18:19:26.802Z,98735.75
2018-09-29T18:21:55.682Z,98728.34
2018-09-29T18:24:24.489Z,98733.13
2018-09-29T18:26:53.362Z,98726.19
2018-09-29T18:29:22.031Z,98730.02
2018-09-29T18:31:50.800Z,98726.64
2018-09-29T18:34:19.597Z,98729.54
2018-09-29T18:36:48.533Z,98730.63
2018-09-29T18:39:17.365Z,98732.76
2018-09-29T18:41:46.072Z,98732.31
2018-09-29T18:44:15.228Z,98726.30
2018-09-29T18:46:43.937Z,98725.98
2018-09-29T18:49:12.709Z,98733.24
2018-09-29T18:51:41.610Z,98731.53
2018-09-29T18:54:10.373Z,98730.14
2018-09-29T18:56:38.359Z,98732.14
2018-09-29T18:59:06.997Z,98734.42
2018-09-29T19:01:35.800Z,98726.09
2018-09-29T19:04:04.702Z,98732.73
2018-09-29T19:06:33.612Z,98727.03
2018-09-29T19:09:02.530Z,98727.75
2018-09-29T19:11:31.372Z,98728.19
2018-09-29T19:14:00.007Z,98724.78
2018-09-29T19:16:28.753Z,98724.00
2018-09-29T19:18:57.592Z,98716.73
2018-09-29T19:21:26.369Z,98715.06
2018-09-29T19:23:55.000Z,98719.16
2018-09-29T19:26:23.904Z,98714.66
2018-09-29T19:28:52.697Z,98713.77
2018-09-29T19:31:21.734Z,98711.30
2018-09-29T19:33:50.607Z,98710.56
2018-09-29T19:36:19.646Z,98712.41
2018-09-29T19:38:48.625Z,98711.80
2018-09-29T19:41:17.459Z,98703.46
2018-09-29T19:43:46.037Z,98707.12
2018-09-29T19:46:15.010Z,98701.27
2018-09-29T19:48:43.797Z,98702.05
2018-09-29T19:51:12.640Z,98692.44
2018-09-29T19:53:41.373Z,98693.50
2018-09-29T19:56:10.071Z,98699.06
2018-09-29T19:58:38.928Z,98699.41
2018-09-29T20:01:07.768Z,98688.31
2018-09-29T20:03:36.806Z,98689.23
2018-09-29T20:06:05.609Z,98685.53
2018-09-29T20:08:34.653Z,98694.89
2018-09-29T20:11:03.824Z,98689.61
2018-09-29T20:13:32.628Z,98682.22
2018-09-29T20:16:01.371Z,98685.55
2018-09-29T20:18:29.358Z,98681.52
2018-09-29T20:20:58.037Z,98677.83
2018-09-29T20:23:26.821Z,98683.80
2018-09-29T20:25:55.702Z,98676.38
2018-09-29T20:28:24.580Z,98669.88
2018-09-29T20:30:53.569Z,98672.48
2018-09-29T20:33:22.365Z,98666.14
2018-09-29T20:35:50.357Z,98662.73
2018-09-29T20:38:19.021Z,98668.45
2018-09-29T20:40:47.952Z,98659.80
2018-09-29T20:43:16.695Z,98655.95
2018-09-29T20:45:45.665Z,98651.39
2018-09-29T20:48:14.672Z,98652.75
2018-09-29T20:50:43.494Z,98651.70
2018-09-29T20:53:12.284Z,98651.53
2018-09-29T20:55:41.014Z,98645.80
2018-09-29T21:00:30.986Z,98636.50
2018-09-29T21:02:58.646Z,98631.77
2018-09-29T21:05:26.321Z,98628.03
2018-09-29T21:07:54.026Z,98628.31
2018-09-29T21:10:21.840Z,98627.10
2018-09-29T21:12:49.574Z,98621.94
2018-09-29T21:15:17.309Z,98625.52
2018-09-29T21:17:45.322Z,98625.14
2018-09-29T21:20:13.141Z,98623.26
2018-09-29T21:22:41.403Z,98623.39
2018-09-29T21:25:09.272Z,98623.22
2018-09-29T21:27:37.016Z,98622.92
2018-09-29T21:30:06.402Z,98619.41
2018-09-29T21:32:34.882Z,98621.20
2018-09-29T21:35:02.647Z,98614.08
2018-09-29T21:37:30.566Z,98607.57
2018-09-29T21:39:58.510Z,98609.32
2018-09-29T21:42:26.421Z,98613.71
2018-09-29T21:44:54.171Z,98598.99
2018-09-29T21:47:21.958Z,98610.61
2018-09-29T21:49:49.697Z,98602.78
2018-09-29T21:52:17.510Z,98602.64
2018-09-29T21:54:45.404Z,98595.39
2018-09-29T21:57:13.082Z,98593.16
2018-09-29T21:59:40.742Z,98593.13
2018-09-29T22:02:08.781Z,98583.61
2018-09-29T22:04:36.507Z,98584.86
2018-09-29T22:07:04.309Z,98584.94
2018-09-29T22:09:32.117Z,98579.20
2018-09-29T22:11:59.810Z,98579.53
2018-09-29T22:14:27.558Z,98580.64
2018-09-29T22:16:55.348Z,98578.69
2018-09-29T22:19:23.140Z,98580.17
2018-09-29T22:21:50.905Z,98568.97
2018-09-29T22:24:18.699Z,98570.80
2018-09-29T22:26:46.450Z,98565.09
2018-09-29T22:29:14.193Z,98556.05
2018-09-29T22:31:42.055Z,98546.98
2018-09-29T22:34:09.814Z,98542.22
2018-09-29T22:36:37.608Z,98542.38
2018-09-29T22:39:07.780Z,98540.25
2018-09-29T22:41:35.654Z,98529.36
2018-09-29T22:44:03.538Z,98536.10
2018-09-29T22:46:31.446Z,98532.06
2018-09-29T22:48:59.209Z,98528.72
2018-09-29T22:51:27.008Z,98530.10
2018-09-29T22:53:54.797Z,98526.56
2018-09-29T22:56:22.567Z,98523.23
2018-09-29T22:58:50.298Z,98515.44
2018-09-29T23:01:18.102Z,98525.48
2018-09-29T23:03:45.805Z,98516.68
2018-09-29T23:06:13.585Z,98514.10
2018-09-29T23:08:41.390Z,98512.46
2018-09-29T23:11:09.157Z,98516.03
2018-09-29T23:13:36.909Z,98512.53
2018-09-29T23:16:05.099Z,98507.44
2018-09-29T23:18:32.839Z,98502.16
2018-09-29T23:21:00.671Z,98497.08
2018-09-29T23:23:28.419Z,98502.92
2018-09-29T23:25:56.301Z,98504.55
2018-09-29T23:28:24.069Z,98495.16
2018-09-29T23:30:51.806Z,98492.10
2018-09-29T23:33:19.606Z,98493.11
2018-09-29T23:35:47.560Z,98487.38
2018-09-29T23:38:15.460Z,98481.19
2018-09-29T23:40:43.192Z,98482.44
2018-09-29T23:43:10.924Z,98480.27
2018-09-29T23:45:38.594Z,98468.44
2018-09-29T23:48:06.421Z,98466.70
2018-09-29T23:50:34.289Z,98458.12
2018-09-29T23:53:02.047Z,98456.88
2018-09-29T23:55:29.785Z,98449.59
2018-09-29T23:57:57.872Z,98447.00
